Time,TemperatureF,DewpointF,PressureIn,WindDirection,WindDirectionDegrees,WindSpeedMPH,WindSpeedGustMPH,Humidity,HourlyPrecipIn,Conditions,Clouds,dailyrainin,SolarRadiationWatts/m^2,SoftwareType,DateUTC
2013-03-11 00:12:00,18.0,12.0,-100.00,WSW,241,10.0,16.0,78,0.00,,,0.01,0.000000,,2013-03-11 06:12:00,
2013-03-11 00:22:00,18.0,12.0,-100.00,WSW,241,10.0,16.0,78,0.00,,,0.01,0.000000,,2013-03-11 06:22:00,
2013-03-11 00:32:00,18.0,12.0,-100.00,WSW,241,10.0,16.0,78,0.00,,,0.01,0.000000,,2013-03-11 06:32:00,
2013-03-11 00:42:00,18.0,12.0,-100.00,WSW,241,10.0,16.0,78,0.00,,,0.01,0.000000,,2013-03-11 06:42:00,
2013-03-11 01:12:00,16.0,11.0,-100.00,SW,232,9.0,12.0,82,0.00,,,0.01,0.000000,,2013-03-11 07:12:00,
2013-03-11 01:21:00,16.0,11.0,-100.00,SW,232,9.0,12.0,82,0.00,,,0.01,0.000000,,2013-03-11 07:21:00,
2013-03-11 01:32:00,16.0,11.0,-100.00,SW,232,9.0,12.0,82,0.00,,,0.01,0.000000,,2013-03-11 07:32:00,
2013-03-11 01:42:00,16.0,11.0,-100.00,SW,232,9.0,12.0,82,0.00,,,0.01,0.000000,,2013-03-11 07:42:00,
2013-03-11 02:12:00,13.0,9.0,-100.00,SW,233,7.0,10.0,82,0.00,,,0.01,0.000000,,2013-03-11 08:12:00,
2013-03-11 02:22:00,13.0,9.0,-100.00,SW,233,7.0,10.0,82,0.00,,,0.01,0.000000,,2013-03-11 08:22:00,
2013-03-11 02:32:00,13.0,9.0,-100.00,SW,233,7.0,10.0,82,0.00,,,0.01,0.000000,,2013-03-11 08:32:00,
2013-03-11 02:42:00,13.0,9.0,-100.00,SW,233,7.0,10.0,82,0.00,,,0.01,0.000000,,2013-03-11 08:42:00,
2013-03-11 03:12:00,20.0,10.0,-100.00,SW,217,6.0,12.0,65,0.00,,,0.01,0.000000,,2013-03-11 09:12:00,
2013-03-11 03:22:00,20.0,10.0,-100.00,SW,217,6.0,12.0,65,0.00,,,0.01,0.000000,,2013-03-11 09:22:00,
2013-03-11 03:32:00,20.0,10.0,-100.00,SW,217,6.0,12.0,65,0.00,,,0.01,0.000000,,2013-03-11 09:32:00,
2013-03-11 03:42:00,20.0,10.0,-100.00,SW,217,6.0,12.0,65,0.00,,,0.01,0.000000,,2013-03-11 09:42:00,
2013-03-11 04:12:00,20.0,9.0,-100.00,SW,226,7.0,10.0,62,0.00,,,0.01,0.000000,,2013-03-11 10:12:00,
2013-03-11 04:22:00,20.0,9.0,-100.00,SW,226,7.0,10.0,62,0.00,,,0.01,0.000000,,2013-03-11 10:22:00,
2013-03-11 04:32:00,20.0,9.0,-100.00,SW,226,7.0,10.0,62,0.00,,,0.01,0.000000,,2013-03-11 10:32:00,
2013-03-11 04:41:00,20.0,9.0,-100.00,SW,226,7.0,10.0,62,0.00,,,0.01,0.000000,,2013-03-11 10:41:00,
2013-03-11 05:12:00,18.0,9.0,-100.00,WSW,239,8.0,12.0,67,0.00,,,0.01,0.000000,,2013-03-11 11:12:00,
2013-03-11 05:22:00,18.0,9.0,-100.00,WSW,239,8.0,12.0,67,0.00,,,0.01,0.000000,,2013-03-11 11:22:00,
2013-03-11 05:32:00,18.0,9.0,-100.00,WSW,239,8.0,12.0,67,0.00,,,0.01,0.000000,,2013-03-11 11:32:00,
2013-03-11 05:42:00,18.0,9.0,-100.00,WSW,239,8.0,12.0,67,0.00,,,0.01,0.000000,,2013-03-11 11:42:00,
2013-03-11 06:12:00,19.0,10.0,-100.00,WNW,297,7.0,14.0,68,0.00,,,-99.99,0.000000,,2013-03-11 12:12:00,
2013-03-11 06:22:00,19.0,10.0,-100.00,WNW,297,7.0,14.0,68,0.00,,,-99.99,0.000000,,2013-03-11 12:22:00,
2013-03-11 06:32:00,19.0,10.0,-100.00,WNW,297,7.0,14.0,68,0.00,,,-99.99,0.000000,,2013-03-11 12:32:00,
2013-03-11 06:42:00,19.0,10.0,-100.00,WNW,297,7.0,14.0,68,0.00,,,-99.99,0.000000,,2013-03-11 12:42:00,
2013-03-11 07:12:00,16.0,9.0,-100.00,WSW,245,7.0,14.0,72,0.00,,,-99.99,0.000000,,2013-03-11 13:12:00,
2013-03-11 07:22:00,16.0,9.0,-100.00,WSW,245,7.0,14.0,72,0.00,,,-99.99,0.000000,,2013-03-11 13:22:00,
2013-03-11 07:32:00,16.0,9.0,-100.00,WSW,245,7.0,14.0,72,0.00,,,-99.99,0.000000,,2013-03-11 13:32:00,
2013-03-11 07:42:00,16.0,9.0,-100.00,WSW,245,7.0,14.0,72,0.00,,,-99.99,0.000000,,2013-03-11 13:42:00,
2013-03-11 08:12:00,15.0,9.0,-100.00,SW,220,8.0,13.0,75,0.00,,,0.01,6.000000,,2013-03-11 14:12:00,
2013-03-11 08:32:00,15.0,9.0,-100.00,SW,220,8.0,13.0,75,0.00,,,0.01,6.000000,,2013-03-11 14:32:00,
2013-03-11 08:42:00,15.0,9.0,-100.00,SW,220,8.0,13.0,75,0.00,,,0.01,6.000000,,2013-03-11 14:42:00,
2013-03-11 09:12:00,23.0,12.0,-100.00,WNW,284,6.0,12.0,61,-99.99,,,0.01,171.000000,,2013-03-11 15:12:00,
2013-03-11 09:42:00,23.0,12.0,-100.00,WNW,284,6.0,12.0,61,-99.99,,,0.01,171.000000,,2013-03-11 15:42:00,
2013-03-11 10:12:00,28.0,14.0,-100.00,West,275,6.0,13.0,54,0.00,,,0.01,394.000000,,2013-03-11 16:12:00,
2013-03-11 10:42:00,28.0,14.0,-100.00,West,275,6.0,13.0,54,0.00,,,0.01,394.000000,,2013-03-11 16:42:00,
2013-03-11 11:02:00,31.0,15.0,-100.00,NW,312,6.0,11.0,51,0.00,,,-99.99,621.000000,,2013-03-11 17:02:00,
2013-03-11 11:13:00,31.0,15.0,-100.00,NW,312,6.0,11.0,51,0.00,,,-99.99,621.000000,,2013-03-11 17:13:00,
2013-03-11 11:24:00,31.0,15.0,-100.00,NW,312,6.0,11.0,51,0.00,,,-99.99,621.000000,,2013-03-11 17:24:00,
2013-03-11 11:34:00,31.0,15.0,-100.00,NW,312,6.0,11.0,51,0.00,,,-99.99,621.000000,,2013-03-11 17:34:00,
2013-03-11 11:42:00,31.0,15.0,-100.00,NW,312,6.0,11.0,51,0.00,,,-99.99,621.000000,,2013-03-11 17:42:00,
2013-03-11 12:12:00,36.0,15.0,-100.00,NNE,16,2.0,11.0,41,0.00,,,0.01,790.000000,,2013-03-11 18:12:00,
2013-03-11 12:22:00,36.0,15.0,-100.00,NNE,16,2.0,11.0,41,0.00,,,0.01,790.000000,,2013-03-11 18:22:00,
2013-03-11 12:32:00,36.0,15.0,-100.00,NNE,16,2.0,11.0,41,0.00,,,0.01,790.000000,,2013-03-11 18:32:00,
2013-03-11 12:42:00,36.0,15.0,-100.00,NNE,16,2.0,11.0,41,0.00,,,0.01,790.000000,,2013-03-11 18:42:00,
2013-03-11 13:12:00,33.0,14.0,-100.00,NW,307,7.0,12.0,45,0.00,,,0.01,935.000000,,2013-03-11 19:12:00,
2013-03-11 13:22:00,33.0,14.0,-100.00,NW,307,7.0,12.0,45,0.00,,,0.01,935.000000,,2013-03-11 19:22:00,
2013-03-11 13:42:00,33.0,14.0,-100.00,NW,307,7.0,12.0,45,0.00,,,0.01,935.000000,,2013-03-11 19:42:00,
2013-03-11 14:12:00,34.0,17.0,-100.00,NW,304,11.0,19.0,50,-99.99,,,0.00,920.000000,,2013-03-11 20:12:00,
2013-03-11 14:22:00,34.0,17.0,-100.00,NW,304,11.0,19.0,50,-99.99,,,0.00,920.000000,,2013-03-11 20:22:00,
2013-03-11 15:12:00,35.0,11.0,-100.00,NW,312,9.0,17.0,37,-99.99,,,0.00,884.000000,,2013-03-11 21:12:00,
2013-03-11 15:22:00,35.0,11.0,-100.00,NW,312,9.0,17.0,37,-99.99,,,0.00,884.000000,,2013-03-11 21:22:00,
2013-03-11 16:12:00,33.0,12.0,-100.00,NW,314,9.0,18.0,42,-99.99,,,0.00,637.000000,,2013-03-11 22:12:00,
2013-03-11 16:22:00,33.0,12.0,-100.00,NW,314,9.0,18.0,42,-99.99,,,0.00,637.000000,,2013-03-11 22:22:00,
2013-03-11 17:12:00,35.0,14.0,-100.00,NW,323,7.0,16.0,42,-99.99,,,0.00,633.000000,,2013-03-11 23:12:00,
2013-03-11 17:22:00,35.0,14.0,-100.00,NW,323,7.0,16.0,42,-99.99,,,0.00,633.000000,,2013-03-11 23:22:00,
2013-03-11 18:12:00,34.0,16.0,-100.00,NW,308,7.0,14.0,48,-99.99,,,0.00,446.000000,,2013-03-12 00:12:00,
2013-03-11 18:22:00,34.0,16.0,-100.00,NW,308,7.0,14.0,48,-99.99,,,0.00,446.000000,,2013-03-12 00:22:00,
2013-03-11 18:42:00,34.0,16.0,-100.00,NW,308,7.0,14.0,48,-99.99,,,0.00,446.000000,,2013-03-12 00:42:00,
2013-03-11 19:12:00,30.0,17.0,-100.00,WNW,293,8.0,18.0,58,-99.99,,,0.00,115.000000,,2013-03-12 01:12:00,
2013-03-11 19:22:00,30.0,17.0,-100.00,WNW,293,8.0,18.0,58,-99.99,,,0.00,115.000000,,2013-03-12 01:22:00,
2013-03-11 19:42:00,30.0,17.0,-100.00,WNW,293,8.0,18.0,58,-99.99,,,0.00,115.000000,,2013-03-12 01:42:00,
2013-03-11 20:12:00,27.0,17.0,-100.00,WNW,291,6.0,17.0,66,0.00,,,0.00,7.000000,,2013-03-12 02:12:00,
2013-03-11 20:22:00,27.0,17.0,-100.00,WNW,291,6.0,17.0,66,0.00,,,0.00,7.000000,,2013-03-12 02:22:00,
2013-03-11 20:32:00,27.0,17.0,-100.00,WNW,291,6.0,17.0,66,0.00,,,0.00,7.000000,,2013-03-12 02:32:00,
2013-03-11 20:42:00,27.0,17.0,-100.00,WNW,291,6.0,17.0,66,0.00,,,0.00,7.000000,,2013-03-12 02:42:00,
2013-03-11 21:12:00,27.0,18.0,-100.00,West,260,9.0,14.0,67,0.00,,,0.00,0.000000,,2013-03-12 03:12:00,
2013-03-11 21:22:00,27.0,18.0,-100.00,West,260,9.0,14.0,67,0.00,,,0.00,0.000000,,2013-03-12 03:22:00,
2013-03-11 21:32:00,27.0,18.0,-100.00,West,260,9.0,14.0,67,0.00,,,0.00,0.000000,,2013-03-12 03:32:00,
2013-03-11 21:42:00,27.0,18.0,-100.00,West,260,9.0,14.0,67,0.00,,,0.00,0.000000,,2013-03-12 03:42:00,
2013-03-11 22:12:00,27.0,17.0,-100.00,West,266,9.0,19.0,66,0.00,,,0.00,0.000000,,2013-03-12 04:12:00,
2013-03-11 22:22:00,27.0,17.0,-100.00,West,266,9.0,19.0,66,0.00,,,0.00,0.000000,,2013-03-12 04:22:00,
2013-03-11 22:32:00,27.0,17.0,-100.00,West,266,9.0,19.0,66,0.00,,,0.00,0.000000,,2013-03-12 04:32:00,
2013-03-11 22:42:00,27.0,17.0,-100.00,West,266,9.0,19.0,66,0.00,,,0.00,0.000000,,2013-03-12 04:42:00,
2013-03-11 23:12:00,26.0,17.0,-100.00,WNW,295,1.0,13.0,68,0.00,,,0.00,0.000000,,2013-03-12 05:12:00,
2013-03-11 23:22:00,26.0,17.0,-100.00,WNW,295,1.0,13.0,68,0.00,,,0.00,0.000000,,2013-03-12 05:22:00,
2013-03-11 23:32:00,26.0,17.0,-100.00,WNW,295,1.0,13.0,68,0.00,,,0.00,0.000000,,2013-03-12 05:32:00,
2013-03-11 23:42:00,26.0,17.0,-100.00,WNW,295,1.0,13.0,68,0.00,,,0.00,0.000000,,2013-03-12 05:42:00,